Coulee Dam, WA

1:29 PM PDT on July 28, 2014 (GMT -0700)
Ephrata Municipal (KEPH) Elev 1273 ft | 47.31 °N, 119.52 °W | Change Station
Active Advisory: Heat Advisory

Current weather conditions updated 36 minutes ago

Clear
Clear
99 °F
Feels Like 99 °F
N
6
Wind Variable Wind from East

Today is forecast to be nearly the same temperature as yesterday.

Today
High -- | Low -- °F
--% Chance of Precip.
Yesterday
High -- | Low -- °F
Precip. -- in
5:27 AM 8:36 PM
Waxing Crescent, 3% visible
Pressure 29.97 in
Visibility 10.0 miles
Clouds Clear
Dew Point 32 °F
Humidity 10%
Rainfall 0.00 in
Snow Depth Not available.
UV 10 out of 12
Pollen 6.80 out of 12
Air Quality Not available.
Flu Activity Not available.
METAR KEPH 281953Z AUTO 10005KT 10SM CLR 37/00 A3001 RMK AO2 SLP148 T03720000

More Conditions Fewer Conditions

Pressure 29.97 in
Visibility 10.0 miles
Clouds Clear
Dew Point 32 °F
Humidity 10%
Rainfall 0.00 in
Snow Depth Not available.
UV 10 out of 12
Pollen 6.80 out of 12
Air Quality Not available.
Flu Activity Not available.
METAR KEPH 281953Z AUTO 10005KT 10SM CLR 37/00 A3001 RMK AO2 SLP148 T03720000

More Conditions Fewer Conditions

10-Day Weather Forecast

Almanac

Astronomy

Jul. 28, 2014 Rise Set
Actual Time 5:27 AM PDT 8:36 PM PDT
Civil Twilight 4:50 AM PDT 9:13 PM PDT
Nautical Twilight 4:01 AM PDT 10:01 PM PDT
Astronomical Twilight 3:01 AM PDT 11:01 PM PDT
Moon 7:25 AM PDT 9:06 PM PDT
Length of Visible Light 16h 23m
Length of Day
15h 09m
Tomorrow will be 2m 35s shorter.
Waxing Crescent, 3% of the Moon is Illuminated
Today
Waxing Crescent
Aug 3
First Quarter
Aug 10
Full
Aug 17
Last Quarter
Aug 25
New

Today's Extremes

State Highs State Lows

Community

WunderPhotos

Upload Photos

1,738,488 photos uploaded!

Nearby

Snow Depth

Station Depth Elevation
Moses Mountain 0 in 5300 ft
Trough 0 in 5300 ft
Grouse Camp 0 in 5380 ft
Rainy Pass 0 in 4780 ft
Harts Pass 0 in 6500 ft

Earthquake Activity

City Distance Mag. Time & Date
No recent earthquake activity has been reported nearby.
Minimum magnitude displayed is 2.5.

Coastal Water Temperatures

Place Temperature
No Stations Reporting

Nearby Weather Stations

Station Location Temp. Heat Index Dew Point Humidity Wind Precip. Elev Updated Type
MesoWest Grand Coulee Dam , Coulee Dam, WA 88 °F 85 °F 44 °F 22% SW  at  2 mph 0.00 in / hr 1324 ft 12:00 PM PDT MADIS
RAWS SPRING CANYON WA, Coulee Dam, WA 95 °F 90 °F 36 °F 13% South  at  3 mph 0.00 in / hr 1339 ft 12:37 PM PDT MADIS
RAWS NESPELEM WA, Elmer City, WA 97 °F 92 °F 40 °F 14% SW  at  8 mph 0.00 in / hr 1899 ft 12:57 PM PDT MADIS
MesoWest Mansfield , Mansfield, WA 90 °F 86 °F 39 °F 17% North  at  2 mph 0.00 in / hr 2159 ft 11:10 AM PDT MADIS
MesoWest Coulee Dam West , Electric City, WA 92 °F 88 °F 38 °F 15% WSW  at  5 mph 0.00 in / hr 2562 ft 12:10 PM PDT MADIS

Show More Stations Show Fewer Stations